Time;durP1;ratioP1;P1;durP2;ratioP2;P2;SDS_P1;SDS_P2;PMS_P1;PMS_P2;Temp;Humidity;BMP_temperature;BMP_pressure;BME280_temperature;BME280_humidity;BME280_pressure;Samples;Min_cycle;Max_cycle;Signal;HPM_P1;HPM_P2
2022/03/15 00:01:40;;;;;;;;;25.75;25.00;;;;;8.74;29.53;101125.09;5010601;28;9008;-81
2022/03/15 00:04:09;;;;;;;;;29.25;26.25;;;;;8.70;28.86;101122.38;4959851;28;8850;-77
2022/03/15 00:06:40;;;;;;;;;35.25;31.75;;;;;8.72;29.81;101123.31;5011749;28;8862;-77
2022/03/15 00:09:08;;;;;;;;;39.50;36.75;;;;;8.66;29.51;101125.69;4968220;28;8988;-77
2022/03/15 00:11:40;;;;;;;;;39.75;35.25;;;;;8.62;29.12;101118.63;4936569;28;8868;-77
2022/03/15 00:14:14;;;;;;;;;36.00;35.50;;;;;8.60;29.63;101116.00;4944383;28;8896;-78
2022/03/15 00:16:43;;;;;;;;;54.25;43.50;;;;;8.55;29.86;101117.56;4987514;28;8891;-77
2022/03/15 00:19:12;;;;;;;;;43.00;39.50;;;;;8.38;29.58;101120.41;4968703;28;9039;-79
2022/03/15 00:21:42;;;;;;;;;40.00;35.75;;;;;8.38;30.38;101107.44;4949278;28;8886;-78
2022/03/15 00:24:11;;;;;;;;;39.75;31.25;;;;;8.42;29.43;101104.97;4916817;28;8890;-76
2022/03/15 00:26:40;;;;;;;;;45.00;41.75;;;;;8.44;30.28;101106.78;4916304;28;9906;-80
2022/03/15 00:29:12;;;;;;;;;40.75;38.25;;;;;8.48;29.71;101103.44;4931472;29;8859;-77
2022/03/15 00:31:41;;;;;;;;;39.75;37.25;;;;;8.48;29.91;101092.19;4929852;29;8874;-78
2022/03/15 00:34:09;;;;;;;;;40.00;37.75;;;;;8.50;30.31;101095.69;4913545;29;8860;-80
2022/03/15 00:36:38;;;;;;;;;27.00;24.50;;;;;8.50;29.90;101093.97;4920847;29;9423;-78
2022/03/15 00:39:08;;;;;;;;;32.75;30.25;;;;;8.49;29.90;101089.63;4876395;29;8925;-77
2022/03/15 00:41:37;;;;;;;;;36.00;34.50;;;;;8.49;30.04;101093.97;4949303;28;8988;-77
2022/03/15 00:44:07;;;;;;;;;37.75;36.00;;;;;8.49;30.63;101106.94;4951500;28;8846;-78
2022/03/15 00:46:35;;;;;;;;;43.75;40.50;;;;;8.04;30.74;101108.00;4953499;28;8945;-76
2022/03/15 00:49:04;;;;;;;;;41.75;39.00;;;;;7.83;31.34;101105.53;4955145;28;8858;-80
2022/03/15 00:51:34;;;;;;;;;42.25;40.50;;;;;7.75;31.20;101107.84;4951999;28;8846;-76
2022/03/15 00:54:03;;;;;;;;;46.75;41.50;;;;;7.78;31.49;101107.06;4951073;28;9001;-79
2022/03/15 00:56:33;;;;;;;;;44.25;39.00;;;;;7.79;31.64;101114.03;4952490;28;8941;-77
2022/03/15 00:59:02;;;;;;;;;41.50;39.25;;;;;7.79;31.58;101107.13;4990043;28;8993;-79
2022/03/15 01:01:31;;;;;;;;;48.25;40.00;;;;;7.80;30.92;101101.09;4974529;28;8854;-77
2022/03/15 01:04:02;;;;;;;;;46.75;41.50;;;;;7.81;31.72;101105.47;4974352;28;8842;-78
2022/03/15 01:06:31;;;;;;;;;43.75;41.25;;;;;7.49;31.94;101116.41;4994279;28;8950;-78
2022/03/15 01:08:59;;;;;;;;;42.00;38.75;;;;;6.86;33.86;101132.97;4974534;28;8877;-81
2022/03/15 01:11:28;;;;;;;;;46.50;42.75;;;;;6.52;34.95;101133.31;4954067;28;8868;-77
2022/03/15 01:13:58;;;;;;;;;46.25;42.00;;;;;6.68;34.16;101127.94;5030446;28;8889;-78
2022/03/15 01:16:26;;;;;;;;;44.50;39.75;;;;;6.94;33.21;101131.59;4991202;28;8975;-77
2022/03/15 01:18:55;;;;;;;;;48.50;41.50;;;;;7.14;33.10;101122.00;4991161;28;8846;-77
2022/03/15 01:21:28;;;;;;;;;40.00;34.75;;;;;7.31;32.48;101117.44;4991247;28;8877;-77
2022/03/15 01:23:56;;;;;;;;;37.75;36.75;;;;;7.44;32.31;101110.16;5007482;28;8865;-78
2022/03/15 01:26:25;;;;;;;;;40.00;35.25;;;;;7.54;31.76;101117.44;5003349;28;8962;-79
2022/03/15 01:28:54;;;;;;;;;37.50;36.50;;;;;7.61;31.75;101106.44;4987203;28;8950;-78
2022/03/15 01:31:24;;;;;;;;;44.75;41.25;;;;;7.69;31.53;101107.59;5004245;28;8938;-78
2022/03/15 01:33:53;;;;;;;;;45.50;38.75;;;;;7.73;31.94;101109.50;4988273;28;9007;-81
2022/03/15 01:36:23;;;;;;;;;35.00;33.25;;;;;7.80;31.14;101106.28;5006276;28;8885;-78
2022/03/15 01:38:52;;;;;;;;;40.75;39.50;;;;;7.85;31.48;101113.38;5007693;28;8862;-82
2022/03/15 01:41:21;;;;;;;;;40.00;38.00;;;;;7.87;31.46;101114.31;5008627;28;8858;-82
2022/03/15 01:43:57;;;;;;;;;41.50;39.25;;;;;7.88;31.42;101103.06;4987006;28;8868;-81
2022/03/15 01:46:27;;;;;;;;;40.75;39.25;;;;;7.88;31.45;101097.88;5004358;28;8888;-79
2022/03/15 01:49:07;;;;;;;;;39.25;38.50;;;;;7.92;31.65;101104.94;5005278;28;8882;-78
2022/03/15 01:51:38;;;;;;;;;49.50;43.00;;;;;7.91;31.54;101090.22;4971952;28;9109;-77
2022/03/15 01:54:06;;;;;;;;;45.75;41.25;;;;;7.90;31.63;101089.34;4971714;28;8865;-80
2022/03/15 01:56:35;;;;;;;;;47.75;42.25;;;;;7.89;31.52;101089.28;5022628;28;8877;-79
2022/03/15 01:59:04;;;;;;;;;39.50;38.00;;;;;7.89;31.18;101092.75;5026822;28;8850;-80
2022/03/15 02:01:34;;;;;;;;;39.25;35.50;;;;;7.87;31.62;101091.81;5044361;28;8858;-82
2022/03/15 02:04:03;;;;;;;;;33.75;32.50;;;;;7.80;31.50;101089.81;5010734;28;8870;-77
2022/03/15 02:06:34;;;;;;;;;43.25;40.00;;;;;7.73;32.46;101091.34;5011082;28;8976;-77
2022/03/15 02:09:09;;;;;;;;;47.50;42.50;;;;;7.52;32.37;101088.81;5043915;28;8886;-78
2022/03/15 02:11:37;;;;;;;;;45.75;39.50;;;;;7.60;32.36;101092.59;4977625;28;8932;-80
2022/03/15 02:14:06;;;;;;;;;50.25;43.25;;;;;7.65;32.63;101089.28;5026583;28;8923;-80
2022/03/15 02:16:36;;;;;;;;;45.00;39.50;;;;;7.67;32.31;101085.91;4975355;28;8892;-77
2022/03/15 02:19:06;;;;;;;;;47.00;42.25;;;;;7.67;32.49;101092.81;4991152;28;8922;-77
2022/03/15 02:21:37;;;;;;;;;43.00;38.25;;;;;7.65;32.58;101087.56;4975282;28;9005;-77
2022/03/15 02:24:08;;;;;;;;;46.50;41.00;;;;;7.63;32.56;101086.63;4991524;28;8961;-78
2022/03/15 02:26:36;;;;;;;;;46.25;42.50;;;;;7.61;32.46;101090.88;4975684;28;8990;-78
2022/03/15 02:29:05;;;;;;;;;49.25;42.00;;;;;7.56;33.08;101095.91;4993061;28;8870;-78
2022/03/15 02:31:34;;;;;;;;;53.75;43.25;;;;;7.19;33.10;101091.94;4976934;28;8861;-76
2022/03/15 02:34:07;;;;;;;;;53.50;44.75;;;;;7.06;33.61;101094.88;4992155;28;8903;-79
2022/03/15 02:36:37;;;;;;;;;55.50;44.50;;;;;7.07;33.33;101088.88;4974008;28;8876;-77
2022/03/15 02:39:08;;;;;;;;;53.50;46.75;;;;;7.02;33.91;101100.78;5006285;28;8869;-80
2022/03/15 02:41:37;;;;;;;;;50.00;39.50;;;;;6.76;34.39;101111.00;4967558;28;9018;-80
2022/03/15 02:44:06;;;;;;;;;53.25;44.75;;;;;6.59;34.65;101109.44;4993776;28;9612;-83
2022/03/15 02:46:39;;;;;;;;;41.25;37.25;;;;;6.63;34.35;101117.41;4977242;28;9683;-81
2022/03/15 02:49:09;;;;;;;;;45.00;40.75;;;;;6.55;34.44;101110.13;4992258;28;8838;-79
2022/03/15 02:51:39;;;;;;;;;43.50;40.00;;;;;6.39;34.28;101108.59;4945692;28;9651;-75
2022/03/15 02:54:13;;;;;;;;;49.00;43.00;;;;;6.46;34.35;101114.94;4976462;28;8854;-77
2022/03/15 02:56:43;;;;;;;;;41.50;40.75;;;;;6.42;34.57;101116.50;4976492;28;8870;-79
2022/03/15 02:59:14;;;;;;;;;39.50;36.00;;;;;6.42;34.87;101112.19;4976192;28;8866;-77
2022/03/15 03:01:44;;;;;;;;;48.75;41.50;;;;;6.51;34.06;101106.53;4954279;28;8891;-77
2022/03/15 03:04:15;;;;;;;;;52.50;43.75;;;;;6.51;34.27;101111.72;4939459;28;8967;-78
2022/03/15 03:06:45;;;;;;;;;56.25;48.00;;;;;6.46;34.76;101113.22;4953101;28;8875;-80
2022/03/15 03:09:14;;;;;;;;;42.00;39.25;;;;;6.44;34.38;101107.97;4953631;28;8862;-77
2022/03/15 03:11:43;;;;;;;;;54.00;45.75;;;;;6.39;34.97;101114.69;4937984;28;8893;-77
2022/03/15 03:14:13;;;;;;;;;51.75;43.75;;;;;6.52;35.12;101117.78;4966804;28;8892;-78
2022/03/15 03:16:42;;;;;;;;;55.50;45.75;;;;;6.61;34.54;101123.34;4956896;28;9006;-78
2022/03/15 03:19:10;;;;;;;;;57.00;47.00;;;;;6.63;34.82;101125.19;4972963;28;8865;-77
2022/03/15 03:21:40;;;;;;;;;58.00;44.75;;;;;6.77;34.63;101124.88;5009705;28;8948;-76
2022/03/15 03:24:10;;;;;;;;;49.75;43.00;;;;;6.81;34.17;101125.03;4972985;28;8828;-77
2022/03/15 03:26:41;;;;;;;;;61.50;48.75;;;;;6.89;34.52;101122.75;4972938;28;9641;-77
2022/03/15 03:29:10;;;;;;;;;52.75;44.50;;;;;6.93;34.17;101134.13;5007573;28;8928;-76
2022/03/15 03:31:42;;;;;;;;;49.75;44.75;;;;;6.74;34.61;101135.09;4959176;28;8874;-77
2022/03/15 03:34:13;;;;;;;;;63.25;51.00;;;;;6.16;36.09;101126.69;5047565;28;8861;-78
2022/03/15 03:36:41;;;;;;;;;55.50;48.00;;;;;6.33;35.52;101129.06;5031667;28;8858;-78
2022/03/15 03:39:32;;;;;;;;;58.75;48.00;;;;;6.21;35.95;101129.44;5048379;28;8857;-78
2022/03/15 03:42:01;;;;;;;;;63.50;52.00;;;;;5.80;37.13;101121.63;5043668;28;8876;-78
2022/03/15 03:44:30;;;;;;;;;68.75;53.00;;;;;5.51;38.29;101119.44;5028168;28;8856;-77
2022/03/15 03:46:59;;;;;;;;;69.67;56.33;;;;;5.24;38.86;101120.81;4963628;28;8933;-77
2022/03/15 03:49:32;;;;;;;;;65.00;51.50;;;;;4.86;39.32;101129.38;5060540;28;9075;-78
2022/03/15 03:52:01;;;;;;;;;65.00;50.00;;;;;4.80;39.15;101129.06;5009262;28;8861;-77
2022/03/15 03:54:30;;;;;;;;;57.00;45.75;;;;;4.92;38.67;101139.13;5008962;28;8877;-77
2022/03/15 03:57:00;;;;;;;;;56.75;48.00;;;;;5.12;38.35;101134.88;4957518;28;8981;-77
2022/03/15 03:59:29;;;;;;;;;44.00;42.25;;;;;5.31;37.93;101128.88;4990732;28;8829;-80
2022/03/15 04:01:58;;;;;;;;;57.25;48.75;;;;;5.52;37.40;101122.09;4990476;28;8845;-78
2022/03/15 04:04:28;;;;;;;;;62.75;49.50;;;;;5.70;37.19;101119.44;4990464;28;8856;-77
2022/03/15 04:06:57;;;;;;;;;58.25;49.25;;;;;5.85;36.85;101127.00;4989146;28;8860;-77
2022/03/15 04:09:27;;;;;;;;;53.00;44.25;;;;;5.96;35.99;101130.97;5001141;28;8874;-79
2022/03/15 04:11:56;;;;;;;;;37.50;36.50;;;;;5.98;35.98;101123.28;5008761;28;9553;-79
2022/03/15 04:14:28;;;;;;;;;44.75;41.75;;;;;6.07;35.69;101127.97;4992300;28;8858;-79
2022/03/15 04:16:57;;;;;;;;;42.00;38.25;;;;;6.01;35.92;101126.91;4992654;28;8878;-76
2022/03/15 04:19:25;;;;;;;;;56.25;45.50;;;;;6.10;35.49;101128.97;5008072;28;8862;-77
2022/03/15 04:21:55;;;;;;;;;55.50;48.75;;;;;6.02;36.31;101130.38;5024957;28;8857;-76
2022/03/15 04:24:26;;;;;;;;;55.50;46.75;;;;;5.93;36.61;101130.81;4989430;28;8891;-80
2022/03/15 04:26:56;;;;;;;;;48.25;41.50;;;;;6.01;36.24;101129.50;4989091;28;8872;-78
2022/03/15 04:29:26;;;;;;;;;50.00;43.00;;;;;5.86;36.57;101136.56;5021510;28;9615;-82
2022/03/15 04:31:55;;;;;;;;;48.75;40.75;;;;;5.61;37.07;101139.72;4938741;28;8876;-83
2022/03/15 04:34:25;;;;;;;;;6.50;1.25;;;;;5.39;36.91;101136.16;4971568;28;8861;-79
2022/03/15 04:36:53;;;;;;;;;44.00;41.25;;;;;5.49;37.07;101140.06;4988146;28;8845;-81
2022/03/15 04:39:22;;;;;;;;;49.75;41.25;;;;;5.70;36.58;101137.56;4988463;28;9055;-81
2022/03/15 04:41:53;;;;;;;;;50.00;44.25;;;;;5.90;36.41;101134.97;4924513;28;9756;-82
2022/03/15 04:44:22;;;;;;;;;52.00;43.50;;;;;6.05;36.25;101133.09;4971650;28;8892;-78
2022/03/15 04:46:52;;;;;;;;;54.50;44.75;;;;;6.18;35.79;101131.91;4994754;28;8997;-78
2022/03/15 04:49:21;;;;;;;;;53.75;43.75;;;;;6.27;35.96;101134.00;4955284;28;8849;-81
2022/03/15 04:51:50;;;;;;;;;52.00;41.50;;;;;6.34;35.52;101138.63;4947864;28;8890;-77
2022/03/15 04:54:19;;;;;;;;;51.75;43.50;;;;;6.39;35.61;101139.69;4948214;28;9063;-77
2022/03/15 04:56:47;;;;;;;;;49.00;41.00;;;;;6.44;35.40;101138.19;4948009;28;8874;-77
2022/03/15 04:59:16;;;;;;;;;53.75;45.25;;;;;6.46;35.22;101143.44;4954221;28;8863;-77
2022/03/15 05:01:44;;;;;;;;;55.00;47.25;;;;;6.47;35.15;101138.31;4983355;28;8868;-77
2022/03/15 05:04:15;;;;;;;;;50.75;44.00;;;;;6.52;35.11;101142.00;4995051;28;8859;-77
2022/03/15 05:06:43;;;;;;;;;60.00;48.00;;;;;6.55;35.18;101142.09;4984538;28;8841;-78
2022/03/15 05:09:12;;;;;;;;;51.00;44.75;;;;;6.46;35.86;101149.50;4970703;28;8868;-76
2022/03/15 05:11:44;;;;;;;;;48.00;42.50;;;;;6.21;35.88;101161.41;4954679;28;8969;-78
2022/03/15 05:14:16;;;;;;;;;62.25;50.50;;;;;6.03;37.11;101160.59;4941495;28;9041;-76
2022/03/15 05:16:45;;;;;;;;;54.00;48.00;;;;;6.04;37.17;101154.63;4986361;28;8990;-77
2022/03/15 05:19:16;;;;;;;;;75.33;57.67;;;;;6.21;37.10;101157.94;4986269;28;8980;-77
2022/03/15 05:21:44;;;;;;;;;83.25;65.00;;;;;6.32;36.82;101155.81;4953251;28;9418;-77
2022/03/15 05:24:13;;;;;;;;;65.75;53.00;;;;;6.41;36.38;101153.63;4970773;28;9550;-77
2022/03/15 05:26:42;;;;;;;;;62.75;50.75;;;;;6.42;36.35;101151.06;4989015;28;8864;-77
2022/03/15 05:29:10;;;;;;;;;62.75;53.25;;;;;6.52;36.60;101154.06;5008493;28;8874;-78
2022/03/15 05:31:39;;;;;;;;;69.00;58.00;;;;;6.61;36.70;101146.66;4992515;28;8943;-78
2022/03/15 05:34:08;;;;;;;;;78.00;59.00;;;;;6.66;36.01;101152.06;4958754;28;9518;-80
2022/03/15 05:36:38;;;;;;;;;94.75;74.00;;;;;6.72;36.12;101154.91;5010117;28;9431;-78
2022/03/15 05:39:06;;;;;;;;;62.50;52.75;;;;;6.76;35.49;101159.38;4989868;28;10397;-81
2022/03/15 05:41:35;;;;;;;;;71.67;56.00;;;;;6.75;36.00;101149.84;4967096;28;8894;-77
2022/03/15 05:44:07;;;;;;;;;73.67;60.00;;;;;6.82;36.38;101149.25;4950745;28;9003;-82
2022/03/15 05:46:35;;;;;;;;;79.75;64.25;;;;;6.90;36.70;101144.38;4934567;28;9446;-79
2022/03/15 05:49:04;;;;;;;;;79.25;63.50;;;;;6.97;36.85;101155.03;4950873;28;9907;-78
2022/03/15 05:51:33;;;;;;;;;81.75;66.75;;;;;7.04;36.51;101151.00;4966626;28;9904;-83
2022/03/15 05:54:04;;;;;;;;;81.75;63.25;;;;;7.14;36.26;101153.13;4930687;29;9830;-76
2022/03/15 05:56:34;;;;;;;;;86.75;66.75;;;;;7.21;36.61;101157.72;4934225;29;9796;-78
2022/03/15 05:59:03;;;;;;;;;85.25;67.75;;;;;7.25;36.28;101150.94;4935526;29;10060;-79
2022/03/15 06:01:31;;;;;;;;;81.00;65.00;;;;;7.34;36.17;101155.63;4898953;29;10081;-81
2022/03/15 06:04:03;;;;;;;;;78.25;62.00;;;;;7.43;36.45;101150.78;4914523;29;9815;-80
2022/03/15 06:06:32;;;;;;;;;82.00;65.00;;;;;7.49;36.25;101148.41;4947470;28;9809;-77
2022/03/15 06:09:00;;;;;;;;;83.50;65.75;;;;;7.53;35.76;101152.03;4944283;29;10152;-78
2022/03/15 06:11:34;;;;;;;;;72.67;57.00;;;;;7.63;35.21;101166.22;4932009;28;10154;-78
2022/03/15 06:14:03;;;;;;;;;74.67;58.33;;;;;7.48;35.33;101172.59;5008538;28;10285;-78
2022/03/15 06:16:32;;;;;;;;;82.25;65.25;;;;;7.13;37.11;101179.03;4961882;28;9335;-77
2022/03/15 06:19:01;;;;;;;;;75.33;58.33;;;;;6.70;36.68;101183.34;5006419;28;9801;-77
2022/03/15 06:21:29;;;;;;;;;79.33;61.67;;;;;7.00;36.25;101175.94;5023154;28;9314;-79
2022/03/15 06:23:58;;;;;;;;;70.67;58.67;;;;;7.27;36.31;101176.97;5018077;28;9338;-78
2022/03/15 06:26:37;;;;;;;;;74.75;62.00;;;;;7.42;36.37;101183.63;5001715;28;9406;-78
2022/03/15 06:29:07;;;;;;;;;76.25;60.75;;;;;7.68;35.77;101175.97;4972216;28;9952;-78
2022/03/15 06:31:38;;;;;;;;;74.50;60.50;;;;;7.92;35.26;101176.00;4979164;28;9839;-80
2022/03/15 06:34:07;;;;;;;;;84.50;63.00;;;;;8.15;34.48;101175.94;4991831;28;9620;-79
2022/03/15 06:36:35;;;;;;;;;82.00;67.00;;;;;8.41;34.43;101174.22;5008705;28;9915;-78
2022/03/15 06:39:05;;;;;;;;;89.25;69.25;;;;;8.63;34.37;101178.47;5007453;28;9933;-84
2022/03/15 06:41:39;;;;;;;;;90.00;71.50;;;;;8.87;34.00;101177.53;5002831;28;10832;-79
2022/03/15 06:44:08;;;;;;;;;88.50;70.00;;;;;9.10;34.36;101180.88;4958265;28;10427;-80
2022/03/15 06:46:37;;;;;;;;;86.75;65.75;;;;;9.31;33.73;101172.84;5022384;28;10501;-77
2022/03/15 06:49:06;;;;;;;;;80.50;64.25;;;;;9.51;33.31;101171.75;4990698;28;10416;-81
2022/03/15 06:51:35;;;;;;;;;79.75;62.75;;;;;9.70;32.87;101178.38;5041845;28;9815;-84
2022/03/15 06:54:04;;;;;;;;;77.50;62.25;;;;;9.87;32.69;101186.69;5017823;28;10544;-81
2022/03/15 06:56:34;;;;;;;;;79.25;61.00;;;;;10.03;32.17;101185.38;4992540;28;10158;-84
2022/03/15 06:59:05;;;;;;;;;80.75;63.75;;;;;10.14;32.01;101189.19;5012407;28;9996;-81
2022/03/15 07:01:34;;;;;;;;;73.33;58.33;;;;;10.29;31.81;101191.31;4956766;28;9813;-80
2022/03/15 07:04:03;;;;;;;;;70.33;59.00;;;;;10.50;31.69;101198.00;4989827;28;9500;-84
2022/03/15 07:06:32;;;;;;;;;71.67;57.00;;;;;10.69;31.29;101186.31;4989101;28;9256;-80
2022/03/15 07:09:00;;;;;;;;;79.50;61.00;;;;;10.87;31.20;101191.13;4992199;28;9202;-81
2022/03/15 07:11:29;;;;;;;;;79.25;63.25;;;;;11.08;31.19;101180.31;4992258;28;9946;-81
2022/03/15 07:13:58;;;;;;;;;81.00;62.75;;;;;11.28;31.07;101186.00;4994124;28;9723;-84
2022/03/15 07:16:29;;;;;;;;;77.50;60.75;;;;;11.47;30.59;101182.06;4994727;28;9971;-80
2022/03/15 07:18:57;;;;;;;;;80.25;61.75;;;;;11.64;30.60;101174.59;5008022;28;9654;-81
2022/03/15 07:21:27;;;;;;;;;74.00;58.33;;;;;11.81;29.88;101170.59;4964007;28;9794;-82
2022/03/15 07:23:57;;;;;;;;;75.75;59.50;;;;;11.97;30.17;101169.22;5012852;28;9548;-80
2022/03/15 07:26:26;;;;;;;;;74.00;59.33;;;;;12.11;29.11;101169.50;5010469;28;9495;-80
2022/03/15 07:28:54;;;;;;;;;72.00;56.00;;;;;12.28;29.53;101169.81;4995033;28;9414;-79
2022/03/15 07:31:23;;;;;;;;;64.33;52.00;;;;;12.33;28.62;101168.16;4995216;28;9464;-80
2022/03/15 07:33:54;;;;;;;;;69.00;54.67;;;;;12.44;28.66;101164.00;4995058;28;9901;-80
2022/03/15 07:36:22;;;;;;;;;67.33;53.00;;;;;12.57;28.20;101165.13;4995194;28;9113;-80
2022/03/15 07:38:51;;;;;;;;;68.00;53.33;;;;;12.67;27.85;101166.16;5010672;28;9168;-81
2022/03/15 07:41:21;;;;;;;;;68.67;55.00;;;;;12.82;28.19;101161.16;5027613;28;9192;-80
2022/03/15 07:43:51;;;;;;;;;59.00;49.00;;;;;12.97;27.36;101164.91;5011061;28;9020;-80
2022/03/15 07:46:20;;;;;;;;;68.67;52.67;;;;;13.07;27.19;101167.66;5008576;28;8972;-82
2022/03/15 07:48:48;;;;;;;;;64.00;52.00;;;;;13.19;26.86;101156.47;5010608;28;9069;-81
2022/03/15 07:51:19;;;;;;;;;70.00;56.33;;;;;13.34;26.89;101152.38;4993519;28;9089;-83
2022/03/15 07:53:47;;;;;;;;;69.33;53.67;;;;;13.50;27.64;101158.72;4992660;28;9349;-82
2022/03/15 07:56:17;;;;;;;;;71.25;57.25;;;;;13.49;26.96;101149.94;5009747;28;9704;-81
2022/03/15 07:58:46;;;;;;;;;76.25;60.75;;;;;13.59;27.77;101141.38;5010125;28;9716;-81
2022/03/15 08:01:15;;;;;;;;;77.00;60.75;;;;;13.70;27.45;101138.00;4992638;28;9979;-82
2022/03/15 08:03:43;;;;;;;;;71.00;57.25;;;;;13.81;26.80;101139.00;4975256;28;9995;-82
2022/03/15 08:06:12;;;;;;;;;73.67;58.67;;;;;13.86;25.78;101139.94;4992568;28;9566;-80
2022/03/15 08:08:44;;;;;;;;;70.33;55.67;;;;;13.98;26.43;101134.81;4945100;28;9505;-83
2022/03/15 08:11:13;;;;;;;;;30.00;30.00;;;;;14.03;23.67;101129.66;4993011;28;9406;-80
2022/03/15 08:13:42;;;;;;;;;21.50;21.50;;;;;14.02;23.21;101123.50;4992379;28;8842;-84
2022/03/15 08:16:10;;;;;;;;;17.00;17.00;;;;;14.08;22.63;101109.56;5009487;28;8884;-81
2022/03/15 08:18:39;;;;;;;;;18.50;17.25;;;;;14.17;23.73;101117.53;4976095;28;8894;-79
2022/03/15 08:21:08;;;;;;;;;24.00;18.75;;;;;14.23;22.88;101114.09;4992334;28;8877;-80
2022/03/15 08:23:37;;;;;;;;;20.25;17.50;;;;;14.23;22.08;101115.00;4992092;28;8847;-82
2022/03/15 08:26:07;;;;;;;;;17.75;16.75;;;;;14.20;21.88;101124.56;5008299;28;8858;-83
2022/03/15 08:28:37;;;;;;;;;20.25;18.00;;;;;14.35;22.21;101123.84;4992425;28;8862;-81
2022/03/15 08:31:06;;;;;;;;;17.50;17.50;;;;;14.38;22.67;101122.09;5008456;28;8854;-82
2022/03/15 08:33:35;;;;;;;;;17.25;16.75;;;;;14.43;21.91;101122.16;4993812;28;8973;-79
2022/03/15 08:36:04;;;;;;;;;13.40;13.00;;;;;14.49;21.63;101121.34;4996964;28;8861;-81
2022/03/15 08:38:34;;;;;;;;;15.00;13.50;;;;;14.56;21.55;101118.78;4992642;28;9727;-81
2022/03/15 08:41:04;;;;;;;;;12.00;10.00;;;;;14.46;20.38;101113.44;5008387;28;8850;-81
2022/03/15 08:43:34;;;;;;;;;13.60;12.60;;;;;14.49;21.11;101116.97;4992000;28;8866;-81
2022/03/15 08:46:03;;;;;;;;;16.75;16.25;;;;;14.55;21.78;101109.13;5008030;28;9703;-80
2022/03/15 08:48:32;;;;;;;;;17.20;15.20;;;;;14.57;20.77;101120.59;4991304;28;8948;-81
2022/03/15 08:51:01;;;;;;;;;15.25;13.50;;;;;14.67;21.32;101115.38;5007779;28;8896;-78
2022/03/15 08:53:32;;;;;;;;;16.25;15.25;;;;;14.68;20.81;101109.28;4991803;28;8878;-83
2022/03/15 08:56:01;;;;;;;;;16.00;14.75;;;;;14.78;20.87;101111.09;4992331;28;8878;-83
2022/03/15 08:58:29;;;;;;;;;14.20;14.00;;;;;14.77;21.39;101106.72;4991424;28;8980;-80
2022/03/15 09:00:59;;;;;;;;;20.50;19.50;;;;;14.85;21.32;101098.91;5007316;28;8842;-81
2022/03/15 09:03:43;;;;;;;;;19.75;14.75;;;;;14.83;20.69;101109.38;5008577;28;8957;-84
2022/03/15 09:06:12;;;;;;;;;22.25;18.25;;;;;14.92;20.87;101109.47;5008169;28;8851;-83
2022/03/15 09:08:40;;;;;;;;;14.00;12.75;;;;;14.99;20.76;101102.50;4987198;28;8864;-83
2022/03/15 09:11:09;;;;;;;;;16.25;16.25;;;;;14.97;20.53;101105.13;5005078;28;8881;-81
2022/03/15 09:13:38;;;;;;;;;15.00;15.00;;;;;15.11;20.64;101099.94;5004822;28;8881;-80
2022/03/15 09:16:13;;;;;;;;;17.50;16.25;;;;;15.21;20.60;101098.25;4987971;28;9074;-80
2022/03/15 09:18:43;;;;;;;;;9.75;9.50;;;;;15.22;20.66;101102.63;4987836;28;8912;-83
2022/03/15 09:21:12;;;;;;;;;16.50;15.50;;;;;15.36;20.13;101102.69;4987771;28;10151;-81
2022/03/15 09:23:41;;;;;;;;;18.00;15.25;;;;;15.46;20.57;101106.25;5003877;28;8876;-80
2022/03/15 09:26:10;;;;;;;;;20.00;19.25;;;;;15.53;20.33;101103.66;4989291;28;8865;-83
2022/03/15 09:28:41;;;;;;;;;21.00;19.50;;;;;15.55;20.90;101107.16;4991027;28;8882;-82
2022/03/15 09:31:09;;;;;;;;;20.00;18.00;;;;;15.58;20.65;101099.28;5007398;28;8859;-81
2022/03/15 09:33:43;;;;;;;;;23.50;21.50;;;;;15.66;20.84;101101.94;4943497;28;9651;-80
2022/03/15 09:36:13;;;;;;;;;24.75;24.75;;;;;15.73;20.32;101087.09;5007396;28;8846;-80
2022/03/15 09:38:42;;;;;;;;;15.50;15.50;;;;;15.66;20.21;101085.31;4991408;28;8869;-82
2022/03/15 09:41:11;;;;;;;;;21.25;20.75;;;;;15.64;20.26;101087.91;5007440;28;8870;-80
2022/03/15 09:43:45;;;;;;;;;18.75;18.75;;;;;15.70;20.49;101081.81;4958347;28;8949;-80
2022/03/15 09:46:15;;;;;;;;;17.75;17.75;;;;;15.69;20.42;101088.81;4991434;28;8838;-83
2022/03/15 09:49:07;;;;;;;;;16.75;16.25;;;;;15.87;19.71;101087.16;5006780;28;8996;-83
2022/03/15 09:51:37;;;;;;;;;18.25;17.00;;;;;15.88;19.27;101067.84;5005979;28;9646;-83
2022/03/15 09:54:08;;;;;;;;;17.50;17.25;;;;;15.97;19.53;101066.13;4974088;28;8859;-80
2022/03/15 09:56:39;;;;;;;;;23.75;18.75;;;;;16.06;19.71;101064.38;5005799;28;9597;-82
2022/03/15 09:59:14;;;;;;;;;21.00;19.75;;;;;16.07;19.59;101059.13;5005773;28;8880;-81
2022/03/15 10:01:43;;;;;;;;;13.75;11.25;;;;;16.21;19.01;101056.50;4973888;28;8888;-81
2022/03/15 10:04:15;;;;;;;;;32.25;31.25;;;;;16.29;19.91;101051.22;4973735;28;8955;-80
2022/03/15 10:06:45;;;;;;;;;31.25;30.75;;;;;16.44;19.59;101050.34;5005412;28;8850;-80
2022/03/15 10:09:15;;;;;;;;;31.50;31.00;;;;;16.55;19.83;101045.97;5005939;28;8881;-81
2022/03/15 10:11:43;;;;;;;;;40.25;32.75;;;;;16.64;19.71;101042.47;4989210;28;8877;-81
2022/03/15 10:14:13;;;;;;;;;28.00;23.75;;;;;16.55;19.08;101038.06;5005999;28;8858;-81
2022/03/15 10:16:43;;;;;;;;;30.75;26.75;;;;;16.38;19.08;101036.31;4990153;28;8949;-83
2022/03/15 10:19:16;;;;;;;;;32.50;31.25;;;;;16.45;20.38;101033.69;4993634;28;8936;-78
2022/03/15 10:21:48;;;;;;;;;27.25;26.50;;;;;16.51;20.57;101031.06;5010946;28;8862;-80
2022/03/15 10:24:22;;;;;;;;;31.25;29.25;;;;;16.47;20.48;101024.91;4978505;28;8877;-84
2022/03/15 10:26:53;;;;;;;;;28.25;25.75;;;;;16.53;20.60;101027.53;4995183;28;8858;-86
2022/03/15 10:29:24;;;;;;;;;29.50;28.00;;;;;16.69;19.97;101030.13;5010856;28;8873;-82
2022/03/15 10:31:53;;;;;;;;;35.50;31.50;;;;;16.71;21.37;101017.84;5010697;28;8866;-81
2022/03/15 10:34:28;;;;;;;;;40.75;34.25;;;;;16.72;21.10;101014.34;4994928;28;8934;-82
2022/03/15 10:36:57;;;;;;;;;33.75;29.25;;;;;16.76;20.91;101009.03;4994115;28;8902;-83
2022/03/15 10:39:27;;;;;;;;;35.25;32.75;;;;;16.83;20.54;101007.31;5012243;28;9035;-80
2022/03/15 10:41:59;;;;;;;;;30.00;27.25;;;;;16.90;20.91;101003.78;4962034;28;8846;-83
2022/03/15 10:44:32;;;;;;;;;39.75;34.75;;;;;16.69;21.55;101004.69;4995438;28;8947;-82
2022/03/15 10:47:04;;;;;;;;;33.00;29.00;;;;;16.84;21.21;100998.53;5027355;28;9588;-82
2022/03/15 10:49:47;;;;;;;;;30.75;28.00;;;;;16.99;20.76;100996.72;5012382;28;8896;-80
2022/03/15 10:52:31;;;;;;;;;29.00;27.50;;;;;17.03;20.19;100994.09;4995191;28;8858;-82
2022/03/15 10:55:11;;;;;;;;;34.25;32.50;;;;;17.11;20.55;100997.56;5012170;28;8869;-80
2022/03/15 10:57:52;;;;;;;;;32.25;31.25;;;;;17.28;20.32;100996.63;4993835;28;8996;-83
2022/03/15 11:00:23;;;;;;;;;28.25;26.00;;;;;17.38;20.21;100992.16;4979480;28;8885;-82
2022/03/15 11:02:52;;;;;;;;;32.00;31.25;;;;;17.49;19.48;100983.31;4993690;28;9572;-81
2022/03/15 11:05:30;;;;;;;;;35.50;32.00;;;;;17.56;19.58;100977.97;5010085;28;8877;-82
2022/03/15 11:08:05;;;;;;;;;26.25;24.75;;;;;17.66;19.56;100975.28;4993253;28;8865;-84
2022/03/15 11:10:35;;;;;;;;;29.50;28.75;;;;;17.82;19.53;100967.25;4993716;28;8866;-79
2022/03/15 11:13:09;;;;;;;;;37.00;32.25;;;;;17.94;19.46;100961.94;4993921;28;8850;-84
2022/03/15 11:15:42;;;;;;;;;35.75;30.25;;;;;18.06;19.45;100947.75;4995283;28;8858;-80
2022/03/15 11:18:13;;;;;;;;;32.25;30.75;;;;;18.21;19.22;100947.59;4996745;28;8981;-81
2022/03/15 11:20:48;;;;;;;;;33.75;31.50;;;;;18.32;18.84;100950.16;4993887;28;8866;-82
2022/03/15 11:23:22;;;;;;;;;38.00;32.75;;;;;18.19;18.67;100945.88;5009924;28;8888;-82
2022/03/15 11:25:59;;;;;;;;;34.75;31.25;;;;;18.43;19.05;100934.16;4994542;28;8941;-84
2022/03/15 11:28:29;;;;;;;;;38.75;34.00;;;;;18.44;18.80;100917.44;4992643;28;8866;-81
2022/03/15 11:30:59;;;;;;;;;28.25;27.25;;;;;18.58;18.65;100914.66;5009670;28;8882;-79
2022/03/15 11:33:29;;;;;;;;;28.75;28.25;;;;;18.65;18.29;100911.03;4993180;28;9709;-81
2022/03/15 11:36:03;;;;;;;;;32.00;30.00;;;;;18.83;18.10;100907.34;4992911;28;8935;-82